createdAt,value
2022-12-12T00:02:20.615Z,17.07
2022-12-12T00:05:23.220Z,16.03
2022-12-12T00:08:27.234Z,15.53
2022-12-12T00:11:29.904Z,16.10
2022-12-12T00:14:32.500Z,17.50
2022-12-12T00:17:35.095Z,16.67
2022-12-12T00:20:37.732Z,16.63
2022-12-12T00:23:41.945Z,16.27
2022-12-12T00:26:44.551Z,16.00
2022-12-12T00:29:51.924Z,15.43
2022-12-12T00:32:54.534Z,16.73
2022-12-12T00:35:57.121Z,16.60
2022-12-12T00:39:01.327Z,17.37
2022-12-12T00:42:03.990Z,16.87
2022-12-12T00:45:07.511Z,17.27
2022-12-12T00:48:10.322Z,17.07
2022-12-12T00:51:17.445Z,17.87
2022-12-12T00:54:21.412Z,18.33
2022-12-12T00:57:23.983Z,16.13
2022-12-12T01:00:26.701Z,16.63
2022-12-12T01:03:29.315Z,16.73
2022-12-12T01:06:32.405Z,16.57
2022-12-12T01:09:36.356Z,16.17
2022-12-12T01:12:38.952Z,16.67
2022-12-12T01:15:41.600Z,17.23
2022-12-12T01:18:44.537Z,15.67
2022-12-12T01:21:47.127Z,16.87
2022-12-12T01:24:51.055Z,15.83
2022-12-12T01:27:53.676Z,15.33
2022-12-12T01:30:56.463Z,15.57
2022-12-12T01:33:59.124Z,15.33
2022-12-12T01:37:01.705Z,15.40
2022-12-12T01:40:08.671Z,14.87
2022-12-12T01:43:12.964Z,14.07
2022-12-12T01:46:35.415Z,14.43
2022-12-12T01:49:38.206Z,15.17
2022-12-12T01:52:45.037Z,16.00
2022-12-12T01:55:50.563Z,14.93
2022-12-12T01:58:56.468Z,15.77
2022-12-12T02:01:59.143Z,15.40
2022-12-12T02:05:06.833Z,15.50
2022-12-12T02:08:12.868Z,15.80
2022-12-12T02:11:16.852Z,15.50
2022-12-12T02:14:23.217Z,15.47
2022-12-12T02:17:43.120Z,14.87
2022-12-12T02:21:05.881Z,14.63
2022-12-12T02:24:47.975Z,14.90
2022-12-12T02:28:17.187Z,14.97
2022-12-12T02:31:25.874Z,15.40
2022-12-12T02:34:35.521Z,15.73
2022-12-12T02:37:46.908Z,16.57
2022-12-12T02:40:58.819Z,16.77
2022-12-12T02:44:12.369Z,15.20
2022-12-12T02:47:21.829Z,15.03
2022-12-12T02:50:27.330Z,16.03
2022-12-12T02:53:30.057Z,15.53
2022-12-12T02:56:45.920Z,15.10
2022-12-12T02:59:53.377Z,15.37
2022-12-12T03:03:46.937Z,15.23
2022-12-12T03:07:18.821Z,15.50
2022-12-12T03:10:36.455Z,15.03
2022-12-12T03:13:46.785Z,15.17
2022-12-12T03:16:56.520Z,14.63
2022-12-12T03:20:07.715Z,14.80
2022-12-12T03:23:15.468Z,15.87
2022-12-12T03:26:22.284Z,14.80
2022-12-12T03:29:30.148Z,15.63
2022-12-12T03:32:39.501Z,15.30
2022-12-12T03:35:48.390Z,14.80
2022-12-12T03:38:57.230Z,15.50
2022-12-12T03:42:06.915Z,15.63
2022-12-12T03:45:15.347Z,16.07
2022-12-12T03:48:23.015Z,15.60
2022-12-12T03:51:30.099Z,16.30
2022-12-12T03:54:36.410Z,15.10
2022-12-12T03:57:44.692Z,15.40
2022-12-12T04:00:50.655Z,15.97
2022-12-12T04:04:01.035Z,16.17
2022-12-12T04:07:12.403Z,15.80
2022-12-12T04:10:32.385Z,15.73
2022-12-12T04:13:42.948Z,15.33
2022-12-12T04:16:47.352Z,15.07
2022-12-12T04:20:14.635Z,16.27
2022-12-12T04:23:38.191Z,16.10
2022-12-12T04:26:46.065Z,15.53
2022-12-12T04:29:54.707Z,15.37
2022-12-12T04:33:03.287Z,16.80
2022-12-12T04:36:09.561Z,15.60
2022-12-12T04:39:16.182Z,15.37
2022-12-12T04:42:23.752Z,16.20
2022-12-12T04:45:34.270Z,15.00
2022-12-12T04:48:43.757Z,16.30
2022-12-12T04:51:51.159Z,16.47
2022-12-12T04:55:02.987Z,15.37
2022-12-12T04:58:08.202Z,14.97
2022-12-12T05:01:16.900Z,15.23
2022-12-12T05:04:25.051Z,16.10
2022-12-12T05:07:39.527Z,14.90
2022-12-12T05:10:45.928Z,15.27
2022-12-12T05:13:49.843Z,16.47
2022-12-12T05:16:56.258Z,15.50
2022-12-12T05:19:59.708Z,15.83
2022-12-12T05:23:02.333Z,16.80
2022-12-12T05:26:09.373Z,16.67
2022-12-12T05:29:12.004Z,16.80
2022-12-12T05:32:14.586Z,16.23
2022-12-12T05:35:17.437Z,16.67
2022-12-12T05:38:20.034Z,16.17
2022-12-12T05:41:24.201Z,17.20
2022-12-12T05:44:26.861Z,17.50
2022-12-12T05:47:29.438Z,16.13
2022-12-12T05:50:32.016Z,16.53
2022-12-12T05:53:42.201Z,16.67
2022-12-12T05:56:47.059Z,15.83
2022-12-12T05:59:49.819Z,16.97
2022-12-12T06:02:52.535Z,15.90
2022-12-12T06:05:55.187Z,17.93
2022-12-12T06:08:57.901Z,16.47
2022-12-12T06:12:01.838Z,17.50
2022-12-12T06:15:04.863Z,16.80
2022-12-12T06:18:07.495Z,16.50
2022-12-12T06:21:12.198Z,18.37
2022-12-12T06:24:14.807Z,18.23
2022-12-12T06:27:18.799Z,16.93
2022-12-12T06:30:21.554Z,17.73
2022-12-12T06:33:24.469Z,17.20
2022-12-12T06:36:27.110Z,17.13
2022-12-12T06:39:29.721Z,17.80
2022-12-12T06:42:33.642Z,18.20
2022-12-12T06:45:36.228Z,17.63
2022-12-12T06:48:38.814Z,18.23
2022-12-12T06:51:44.254Z,17.17
2022-12-12T06:54:47.336Z,18.63
2022-12-12T06:57:51.340Z,17.87
2022-12-12T07:00:54.970Z,18.00
2022-12-12T07:03:58.185Z,19.23
2022-12-12T07:07:00.793Z,18.50
2022-12-12T07:10:03.380Z,17.33
2022-12-12T07:13:07.450Z,17.73
2022-12-12T07:16:10.137Z,17.53
2022-12-12T07:19:12.817Z,18.13
2022-12-12T07:22:15.396Z,18.30
2022-12-12T07:25:18.148Z,18.40
2022-12-12T07:28:22.157Z,18.63
2022-12-12T07:31:26.419Z,18.57
2022-12-12T07:34:30.127Z,17.50
2022-12-12T07:37:32.753Z,18.13
2022-12-12T07:40:35.352Z,16.30
2022-12-12T07:43:43.797Z,18.27
2022-12-12T07:46:47.381Z,18.00
2022-12-12T07:49:49.967Z,18.73
2022-12-12T07:52:52.763Z,17.80
2022-12-12T07:55:56.389Z,19.27
2022-12-12T07:59:00.399Z,18.60
2022-12-12T08:02:03.050Z,17.57
2022-12-12T08:05:06.504Z,17.47
2022-12-12T08:08:09.321Z,18.53
2022-12-12T08:11:13.726Z,19.27
2022-12-12T08:14:18.324Z,17.47
2022-12-12T08:17:20.919Z,18.57
2022-12-12T08:20:23.816Z,19.70
2022-12-12T08:23:26.380Z,18.53
2022-12-12T08:26:30.109Z,19.77
2022-12-12T08:29:34.056Z,19.13
2022-12-12T08:32:36.957Z,19.87
2022-12-12T08:35:39.547Z,19.33
2022-12-12T08:38:42.316Z,18.77
2022-12-12T08:41:48.964Z,18.07
2022-12-12T08:44:52.951Z,18.63
2022-12-12T08:47:55.531Z,19.03
2022-12-12T08:50:58.619Z,19.03
2022-12-12T08:54:01.531Z,19.67
2022-12-12T08:57:04.445Z,18.43
2022-12-12T09:00:10.607Z,19.10
2022-12-12T09:03:13.455Z,19.43
2022-12-12T09:06:17.149Z,18.57
2022-12-12T09:09:19.769Z,19.40
2022-12-12T09:12:22.375Z,18.20
2022-12-12T09:15:26.297Z,19.40
2022-12-12T09:18:29.005Z,20.10
2022-12-12T09:21:31.567Z,20.27
2022-12-12T09:24:34.163Z,19.73
2022-12-12T09:27:37.025Z,19.20
2022-12-12T09:30:42.341Z,19.70
2022-12-12T09:33:45.020Z,19.27
2022-12-12T09:36:47.644Z,18.63
2022-12-12T09:39:52.311Z,20.00
2022-12-12T09:42:55.132Z,19.80
2022-12-12T09:46:01.059Z,19.30
2022-12-12T09:49:12.111Z,20.20
2022-12-12T09:52:16.749Z,19.47
2022-12-12T09:55:38.621Z,19.83
2022-12-12T09:58:52.506Z,19.63
2022-12-12T10:02:06.438Z,19.63
2022-12-12T10:05:20.539Z,20.30
2022-12-12T10:08:29.687Z,20.37
2022-12-12T10:11:54.793Z,19.00
2022-12-12T10:15:01.862Z,18.93
2022-12-12T10:18:13.443Z,19.30
2022-12-12T10:21:21.072Z,20.33
2022-12-12T10:24:31.525Z,20.10
2022-12-12T10:27:34.188Z,19.77
2022-12-12T10:30:44.824Z,20.00
2022-12-12T10:34:06.565Z,19.10
2022-12-12T10:37:22.877Z,20.13
2022-12-12T10:40:38.814Z,18.90
2022-12-12T10:43:47.118Z,17.07
2022-12-12T10:46:56.875Z,18.07
2022-12-12T10:50:14.440Z,16.87
2022-12-12T10:53:17.080Z,18.10
2022-12-12T10:56:22.138Z,17.57
2022-12-12T10:59:24.694Z,17.87
2022-12-12T11:02:31.398Z,16.80
2022-12-12T11:05:37.765Z,17.07
2022-12-12T11:08:52.425Z,17.17
2022-12-12T11:12:00.165Z,17.87
2022-12-12T11:15:07.478Z,17.30
2022-12-12T11:18:15.575Z,18.63
2022-12-12T11:21:21.458Z,17.17
2022-12-12T11:24:30.576Z,18.23
2022-12-12T11:27:35.485Z,18.17
2022-12-12T11:30:40.532Z,18.20
2022-12-12T11:33:49.768Z,18.73
2022-12-12T11:36:54.915Z,18.97
2022-12-12T11:39:58.385Z,18.87
2022-12-12T11:43:19.972Z,17.80
2022-12-12T11:46:25.939Z,17.87
2022-12-12T11:49:28.532Z,17.50
2022-12-12T11:52:34.045Z,18.33
2022-12-12T11:55:45.469Z,18.40
2022-12-12T11:58:56.318Z,20.07
2022-12-12T12:02:12.074Z,19.00
2022-12-12T12:05:26.130Z,20.33
2022-12-12T12:08:42.791Z,18.77
2022-12-12T12:11:55.713Z,17.90
2022-12-12T12:15:23.313Z,16.67
2022-12-12T12:18:49.146Z,17.47
2022-12-12T12:22:02.819Z,17.97
2022-12-12T12:25:24.412Z,17.83
2022-12-12T12:29:03.139Z,17.20
2022-12-12T12:32:17.840Z,17.87
2022-12-12T12:35:29.832Z,18.27
2022-12-12T12:38:49.564Z,17.93
2022-12-12T12:42:06.342Z,18.27
2022-12-12T12:45:19.215Z,19.00
2022-12-12T12:48:25.488Z,18.20
2022-12-12T12:51:34.761Z,18.90
2022-12-12T12:54:40.736Z,18.83
2022-12-12T12:57:48.020Z,18.70
2022-12-12T13:00:58.787Z,18.37
2022-12-12T13:04:06.209Z,18.00
2022-12-12T13:07:14.858Z,18.80
2022-12-12T13:10:22.349Z,17.40
2022-12-12T13:13:30.525Z,18.37
2022-12-12T13:16:34.277Z,19.03
2022-12-12T13:19:40.397Z,18.40
2022-12-12T13:22:54.914Z,18.53
2022-12-12T13:26:02.094Z,17.73
2022-12-12T13:29:31.596Z,17.73
2022-12-12T13:32:53.836Z,18.73
2022-12-12T13:36:05.840Z,17.97
2022-12-12T13:39:22.189Z,17.73
2022-12-12T13:42:24.802Z,18.13
2022-12-12T13:45:38.027Z,18.90
2022-12-12T13:48:47.042Z,19.13
2022-12-12T13:51:49.943Z,17.63
2022-12-12T13:55:12.067Z,17.67
2022-12-12T13:58:21.225Z,18.40
2022-12-12T14:01:34.324Z,17.53
2022-12-12T14:04:39.485Z,18.20
2022-12-12T14:07:49.698Z,17.97
2022-12-12T14:10:56.371Z,17.70
2022-12-12T14:14:08.506Z,19.50
2022-12-12T14:17:21.737Z,19.47
2022-12-12T14:20:28.208Z,25.70
2022-12-12T14:23:32.558Z,25.93
2022-12-12T14:26:49.358Z,20.20
2022-12-12T14:29:51.962Z,18.80
2022-12-12T14:33:06.938Z,19.30
2022-12-12T14:36:26.526Z,18.17
2022-12-12T14:40:02.566Z,19.60
2022-12-12T14:43:20.626Z,19.33
2022-12-12T14:46:25.371Z,19.17
2022-12-12T14:49:29.323Z,18.43
2022-12-12T14:52:32.012Z,19.37
2022-12-12T14:55:34.622Z,20.33
2022-12-12T14:58:41.073Z,19.07
2022-12-12T15:01:45.772Z,19.87
2022-12-12T15:04:55.172Z,20.03
2022-12-12T15:08:00.392Z,19.03
2022-12-12T15:11:03.013Z,19.83
2022-12-12T15:14:05.923Z,19.10
2022-12-12T15:17:14.502Z,18.93
2022-12-12T15:20:20.760Z,18.90
2022-12-12T15:23:24.278Z,18.37
2022-12-12T15:26:29.962Z,17.57
2022-12-12T15:29:33.761Z,19.00
2022-12-12T15:32:37.081Z,17.93
2022-12-12T15:35:41.429Z,17.20
2022-12-12T15:38:44.076Z,16.80
2022-12-12T15:41:46.997Z,17.90
2022-12-12T15:44:51.390Z,18.50
2022-12-12T15:47:55.183Z,19.40
2022-12-12T15:51:03.130Z,20.10
2022-12-12T15:54:06.006Z,18.73
2022-12-12T15:57:15.925Z,20.67
2022-12-12T16:00:32.034Z,20.00
2022-12-12T16:03:35.841Z,20.87
2022-12-12T16:06:42.239Z,21.63
2022-12-12T16:09:58.804Z,21.50
2022-12-12T16:13:03.822Z,22.30
2022-12-12T16:16:34.438Z,21.40
2022-12-12T16:19:42.608Z,21.50
2022-12-12T16:22:49.519Z,22.13
2022-12-12T16:25:52.154Z,22.53
2022-12-12T16:28:54.781Z,22.60
2022-12-12T16:31:58.373Z,23.40
2022-12-12T16:35:01.027Z,23.33
2022-12-12T16:38:13.794Z,22.43
2022-12-12T16:41:18.797Z,20.47
2022-12-12T16:44:21.372Z,20.07
2022-12-12T16:47:25.468Z,19.57
2022-12-12T16:50:28.048Z,20.80
2022-12-12T16:53:32.019Z,19.50
2022-12-12T16:56:34.606Z,20.37
2022-12-12T16:59:38.271Z,21.10
2022-12-12T17:02:41.356Z,22.67
2022-12-12T17:05:46.272Z,23.07
2022-12-12T17:08:50.206Z,22.33
2022-12-12T17:11:52.819Z,20.43
2022-12-12T17:14:55.398Z,22.70
2022-12-12T17:17:58.911Z,25.03
2022-12-12T17:21:01.522Z,24.57
2022-12-12T17:24:05.957Z,25.17
2022-12-12T17:27:08.527Z,24.63
2022-12-12T17:30:13.644Z,24.70
2022-12-12T17:33:17.246Z,24.90
2022-12-12T17:36:20.194Z,22.93
2022-12-12T17:39:24.139Z,22.37
2022-12-12T17:42:26.773Z,21.60
2022-12-12T17:45:29.423Z,21.83
2022-12-12T17:48:33.964Z,21.97
2022-12-12T17:51:37.451Z,22.47
2022-12-12T17:54:41.707Z,21.57
2022-12-12T17:57:44.267Z,24.53
2022-12-12T18:00:46.928Z,23.67
2022-12-12T18:03:50.489Z,23.17
2022-12-12T18:06:53.180Z,22.90
2022-12-12T18:09:57.178Z,22.83
2022-12-12T18:12:59.807Z,23.10
2022-12-12T18:16:02.541Z,26.13
2022-12-12T18:19:05.377Z,25.53
2022-12-12T18:22:07.980Z,25.50
2022-12-12T18:25:12.093Z,25.60
2022-12-12T18:28:14.954Z,25.20
2022-12-12T18:31:17.711Z,28.00
2022-12-12T18:34:20.674Z,25.10
2022-12-12T18:37:23.368Z,27.83
2022-12-12T18:40:27.951Z,24.17
2022-12-12T18:43:31.521Z,23.60
2022-12-12T18:46:42.004Z,23.33
2022-12-12T18:49:45.776Z,23.00
2022-12-12T18:52:48.484Z,23.20
2022-12-12T18:55:52.469Z,20.57
2022-12-12T18:58:55.617Z,21.63
2022-12-12T19:01:58.271Z,22.17
2022-12-12T19:05:01.072Z,20.67
2022-12-12T19:08:03.917Z,21.70
2022-12-12T19:11:09.180Z,21.50
2022-12-12T19:14:13.643Z,21.03
2022-12-12T19:17:18.421Z,20.37
2022-12-12T19:20:25.842Z,23.47
2022-12-12T19:23:28.479Z,22.90
2022-12-12T19:26:32.490Z,25.13
2022-12-12T19:29:35.130Z,24.40
2022-12-12T19:32:37.716Z,25.67
2022-12-12T19:35:40.349Z,24.77
2022-12-12T19:38:43.273Z,24.57
2022-12-12T19:41:47.226Z,24.73
2022-12-12T19:44:49.957Z,24.17
2022-12-12T19:47:52.549Z,22.53
2022-12-12T19:50:55.356Z,25.47
2022-12-12T19:54:00.409Z,28.47
2022-12-12T19:57:04.391Z,26.90
2022-12-12T20:00:09.521Z,25.43
2022-12-12T20:03:12.115Z,25.00
2022-12-12T20:06:14.742Z,24.20
2022-12-12T20:09:19.855Z,26.37
2022-12-12T20:12:23.796Z,24.30
2022-12-12T20:15:26.501Z,25.10
2022-12-12T20:18:29.084Z,22.67
2022-12-12T20:24:54.331Z,21.87
2022-12-12T20:27:58.304Z,21.30
2022-12-12T20:31:05.746Z,22.23
2022-12-12T20:34:08.432Z,22.20
2022-12-12T20:37:14.147Z,22.37
2022-12-12T20:40:21.018Z,23.40
2022-12-12T20:43:25.137Z,21.70
2022-12-12T20:46:30.604Z,22.70
2022-12-12T20:49:33.337Z,23.27
2022-12-12T20:52:35.978Z,24.80
2022-12-12T20:55:38.632Z,25.03
2022-12-12T20:58:43.005Z,29.53
2022-12-12T21:01:46.937Z,28.53
2022-12-12T21:04:50.429Z,27.93
2022-12-12T21:07:53.086Z,30.87
2022-12-12T21:10:55.729Z,31.63
2022-12-12T21:14:02.866Z,34.33
2022-12-12T21:17:05.854Z,39.17
2022-12-12T21:20:09.757Z,39.07
2022-12-12T21:23:12.364Z,40.23
2022-12-12T21:26:21.519Z,46.77
2022-12-12T21:29:27.817Z,43.23
2022-12-12T21:32:30.446Z,43.87
2022-12-12T21:35:34.910Z,37.23
2022-12-12T21:38:38.610Z,38.33
2022-12-12T21:41:43.631Z,41.93
2022-12-12T21:44:47.622Z,44.63
2022-12-12T21:47:50.225Z,42.77
2022-12-12T21:50:52.801Z,42.17
2022-12-12T21:53:55.374Z,38.77
2022-12-12T21:56:58.865Z,40.47
2022-12-12T22:00:03.019Z,44.53
2022-12-12T22:03:05.619Z,42.20
2022-12-12T22:06:12.310Z,37.63
2022-12-12T22:09:15.006Z,35.33
2022-12-12T22:12:18.699Z,33.47
2022-12-12T22:15:23.234Z,33.27
2022-12-12T22:18:25.808Z,32.97
2022-12-12T22:21:28.536Z,32.47
2022-12-12T22:24:31.285Z,31.73
2022-12-12T22:27:34.495Z,31.03
2022-12-12T22:30:38.503Z,31.13
2022-12-12T22:33:41.121Z,30.53
2022-12-12T22:36:45.105Z,34.37
2022-12-12T22:39:47.684Z,44.70
2022-12-12T22:42:50.262Z,43.07
2022-12-12T22:45:54.317Z,40.23
2022-12-12T22:49:00.002Z,36.03
2022-12-12T22:52:02.616Z,31.87
2022-12-12T22:55:05.911Z,27.23
2022-12-12T22:58:08.695Z,25.53
2022-12-12T23:01:14.566Z,24.83
2022-12-12T23:04:17.269Z,25.90
2022-12-12T23:07:19.901Z,26.00
2022-12-12T23:10:22.828Z,24.97
2022-12-12T23:13:25.404Z,24.67
2022-12-12T23:16:30.812Z,22.80
2022-12-12T23:19:33.614Z,23.30
2022-12-12T23:22:36.270Z,24.77
2022-12-12T23:25:39.819Z,24.50
2022-12-12T23:28:43.223Z,25.87
2022-12-12T23:31:47.861Z,23.57
2022-12-12T23:34:50.654Z,23.87
2022-12-12T23:37:53.223Z,23.30
2022-12-12T23:40:55.861Z,24.13
2022-12-12T23:43:58.840Z,22.33
2022-12-12T23:47:02.800Z,22.67
2022-12-12T23:50:06.142Z,23.80
2022-12-12T23:53:10.648Z,21.50
2022-12-12T23:56:13.438Z,22.90
2022-12-12T23:59:18.193Z,23.20
